Flight Track Log - Related Links

Times and Time Zones

All times are in EDT time to prevent confusion due to time zone crossing. See the SWA3206 flight status page for this flight to view local times or setup timezone preferences in your user account.

Time Position Orientation Groundspeed Altitude Reporting Facility
EDT Latitude Longitude Course Direction KTS MPH feet Rate Location/Type
Sun 06:58:36 PM 32.7422 -117.2272 282° West 161 185 1,500  Level Los Angeles Center
Sun 06:59:38 PM 32.7547 -117.2967 282° West 205 236 4,000 2,688 Climbing Los Angeles Center
Sun 07:00:41 PM 32.6978 -117.3069 189° South 260 299 7,100 3,600 Climbing Los Angeles Center
Sun 07:01:43 PM 32.6500 -117.2417 131° Southeast 273 314 11,500 3,452 Climbing Los Angeles Center
Sun 07:03:47 PM 32.6133 -116.9883 100° East 365 420 17,800 3,049 Climbing Los Angeles Center
Sun 07:04:48 PM 32.6222 -116.8561 85° East 397 457 20,900 3,073 Climbing Los Angeles Center
Sun 07:05:50 PM 32.6364 -116.7178 83° East 425 489 24,100 2,903 Climbing Los Angeles Center
Sun 07:06:52 PM 32.6489 -116.5847 84° East 413 475 26,900 1,403 Climbing Los Angeles Center
Sun 07:07:54 PM 32.6644 -116.4244 83° East 413 475 27,000 48 Climbing Los Angeles Center
Sun 07:08:56 PM 32.6739 -116.3186 84° East 414 476 27,000  Level Los Angeles Center
Sun 07:09:58 PM 32.6892 -116.1572 84° East 416 479 27,000  Level Los Angeles Center
Sun 07:11:00 PM 32.7019 -116.0208 84° East 421 484 27,000  Level Los Angeles Center
Sun 07:12:02 PM 32.7147 -115.8836 84° East 421 484 27,000 919 Level Los Angeles Center
Sun 07:13:04 PM 32.7303 -115.7178 84° East 426 490 28,900 968 Climbing Los Angeles Center
Sun 07:14:06 PM 32.7433 -115.5742 84° East 437 503 29,000 48 Climbing Los Angeles Center
Sun 07:15:08 PM 32.7511 -115.4314 86° East 437 503 29,000  Level Los Angeles Center
Sun 07:16:10 PM 32.7539 -115.2914 89° East 429 494 29,000  Level Los Angeles Center
Sun 07:17:12 PM 32.7594 -115.1506 87° East 427 491 29,000 -48 Level Los Angeles Center
Sun 07:18:14 PM 32.7622 -114.9811 89° East 428 493 28,900  Descending Los Angeles Center
Sun 07:19:16 PM 32.7672 -114.8392 88° East 429 494 29,000 48 Climbing Los Angeles Center
Sun 07:20:18 PM 32.7689 -114.6956 89° East 433 498 29,000  Level Los Angeles Center
Sun 07:21:20 PM 32.7708 -114.5531 89° East 433 498 29,000  Level Los Angeles Center
Sun 07:22:22 PM 32.7711 -114.4108 90° East 431 496 29,000 -242 Level Los Angeles Center
Sun 07:23:24 PM 32.7742 -114.2681 89° East 432 497 28,500 -1,742 Descending Los Angeles Center
Sun 07:24:26 PM 32.7764 -114.0964 89° East 432 497 25,400 -2,615 Descending Los Angeles Center
Sun 07:24:42 PM 32.7769 -114.0761 88° East 435 501 25,100 -308 Descending Albuquerque Center
Sun 07:25:44 PM 32.7803 -113.9361 88° East 429 494 25,000 -49 Descending Albuquerque Center
Sun 07:26:45 PM 32.8022 -113.7950 79° East 436 502 25,000  Level Albuquerque Center
Sun 07:27:46 PM 32.8400 -113.6586 72° East 442 509 25,000  Level Albuquerque Center
Sun 07:28:48 PM 32.9239 -113.5436 49° Northeast 455 524 25,000 -1,073 Level Albuquerque Center
Sun 07:29:49 PM 33.0217 -113.4100 49° Northeast 446 513 22,800 -1,721 Descending Albuquerque Center
Sun 07:30:50 PM 33.1011 -113.3019 49° Northeast 436 502 21,500 -1,659 Descending Albuquerque Center
Sun 07:31:52 PM 33.1772 -113.1994 48° Northeast 418 481 19,400 -2,195 Descending Albuquerque Center
Sun 07:32:53 PM 33.2514 -113.0975 49° Northeast 409 471 17,000 -1,230 Descending Albuquerque Center
Sun 07:33:54 PM 33.2764 -112.9839 75° East 372 428 16,900 -390 Descending Albuquerque Center
Sun 07:34:56 PM 33.2792 -112.8658 88° East 356 410 16,200 -488 Descending Albuquerque Center
Sun 07:35:57 PM 33.2811 -112.7550 89° East 343 395 15,900 -492 Descending Albuquerque Center
Sun 07:36:58 PM 33.2833 -112.6489 89° East 327 376 15,200 -1,171 Descending Albuquerque Center
Sun 07:38:00 PM 33.2875 -112.5325 88° East 317 365 13,500 -1,610 Descending Albuquerque Center
Sun 07:39:01 PM 33.2897 -112.4283 89° East 315 362 11,900 -1,230 Descending Albuquerque Center
Sun 07:40:02 PM 33.2936 -112.3294 87° East 303 349 11,000 -934 Descending Albuquerque Center
Sun 07:41:03 PM 33.3011 -112.2361 84° East 287 330 10,000 -976 Descending Albuquerque Center
Sun 07:42:05 PM 33.3072 -112.1469 85° East 274 315 9,000 -732 Descending Albuquerque Center
Sun 07:43:06 PM 33.3183 -112.0656 81° East 250 288 8,500 -787 Descending Albuquerque Center
Sun 07:44:07 PM 33.3381 -111.9878 73° East 245 282 7,400 -927 Descending Albuquerque Center
Sun 07:45:09 PM 33.3453 -111.8917 85° East 239 275 6,600 -1,122 Descending Albuquerque Center
Sun 07:46:10 PM 33.3589 -111.8239 76° East 237 273 5,100 -1,475 Descending Albuquerque Center
Sun 07:47:11 PM 33.4081 -111.8467 339° North 215 247 3,600 -1,171 Descending Albuquerque Center
Sun 07:48:13 PM 33.4286 -111.8981 296° West 178 205 2,700 -829 Descending Albuquerque Center
Sun 07:49:14 PM 33.4294 -111.9500 271° West 157 181 1,900 -738 Descending Albuquerque Center
Sun 07:50:15 PM 33.4283 -112.0006 269° West 137 158 1,200 -689 Descending Albuquerque Center

Login

Don't have an account? Register now (free) for customized features, flight alerts, and more!